createdAt,value
2017-07-25T00:00:56.343Z,3.15
2017-07-25T00:03:22.660Z,2.58
2017-07-25T00:05:49.039Z,2.62
2017-07-25T00:08:15.357Z,2.50
2017-07-25T00:10:41.688Z,2.42
2017-07-25T00:13:08.086Z,3.40
2017-07-25T00:15:34.476Z,3.42
2017-07-25T00:18:00.779Z,2.80
2017-07-25T00:20:27.123Z,2.40
2017-07-25T00:22:53.599Z,3.00
2017-07-25T00:25:20.016Z,3.28
2017-07-25T00:27:46.361Z,2.92
2017-07-25T00:30:12.820Z,2.80
2017-07-25T00:32:39.247Z,2.65
2017-07-25T00:35:05.560Z,2.90
2017-07-25T00:37:31.972Z,2.65
2017-07-25T00:39:58.291Z,2.60
2017-07-25T00:42:24.639Z,2.60
2017-07-25T00:44:51.679Z,2.58
2017-07-25T00:47:18.731Z,2.65
2017-07-25T00:49:45.132Z,2.60
2017-07-25T00:52:12.247Z,3.35
2017-07-25T00:54:38.578Z,2.83
2017-07-25T00:57:04.937Z,3.00
2017-07-25T00:59:31.239Z,2.62
2017-07-25T01:01:57.595Z,2.85
2017-07-25T01:04:23.956Z,3.55
2017-07-25T01:06:51.088Z,2.87
2017-07-25T01:09:17.404Z,3.10
2017-07-25T01:11:43.783Z,2.95
2017-07-25T01:14:10.115Z,4.00
2017-07-25T01:16:36.474Z,3.10
2017-07-25T01:19:02.948Z,3.03
2017-07-25T01:21:29.255Z,3.25
2017-07-25T01:23:55.967Z,2.60
2017-07-25T01:26:22.269Z,3.08
2017-07-25T01:28:48.608Z,3.40
2017-07-25T01:31:15.675Z,2.95
2017-07-25T01:33:42.020Z,2.80
2017-07-25T01:36:08.381Z,3.20
2017-07-25T01:38:34.736Z,2.70
2017-07-25T01:41:01.826Z,2.85
2017-07-25T01:43:28.202Z,3.33
2017-07-25T01:45:54.561Z,3.35
2017-07-25T01:48:21.010Z,3.20
2017-07-25T01:50:47.365Z,3.05
2017-07-25T01:53:13.691Z,3.10
2017-07-25T01:55:40.068Z,3.67
2017-07-25T01:58:06.395Z,3.50
2017-07-25T02:00:32.783Z,3.78
2017-07-25T02:02:59.263Z,3.90
2017-07-25T02:05:25.703Z,3.67
2017-07-25T02:07:52.085Z,3.80
2017-07-25T02:10:18.423Z,3.00
2017-07-25T02:12:44.724Z,3.40
2017-07-25T02:15:11.080Z,3.90
2017-07-25T02:17:37.428Z,2.95
2017-07-25T02:20:03.857Z,3.58
2017-07-25T02:22:30.235Z,2.62
2017-07-25T02:24:56.547Z,3.00
2017-07-25T02:27:23.595Z,3.30
2017-07-25T02:29:49.925Z,3.70
2017-07-25T02:32:16.252Z,3.40
2017-07-25T02:34:42.563Z,3.33
2017-07-25T02:37:08.900Z,3.60
2017-07-25T02:39:36.007Z,3.40
2017-07-25T02:42:02.357Z,4.18
2017-07-25T02:44:28.668Z,4.18
2017-07-25T02:46:54.998Z,4.05
2017-07-25T02:49:21.295Z,4.20
2017-07-25T02:51:48.352Z,4.28
2017-07-25T02:54:15.421Z,3.67
2017-07-25T02:56:42.165Z,4.43
2017-07-25T02:59:08.580Z,4.30
2017-07-25T03:01:34.875Z,4.07
2017-07-25T03:04:02.105Z,3.90
2017-07-25T03:06:29.283Z,4.00
2017-07-25T03:08:55.579Z,4.10
2017-07-25T03:11:21.931Z,3.35
2017-07-25T03:13:48.527Z,3.60
2017-07-25T03:16:14.872Z,4.40
2017-07-25T03:18:41.204Z,4.05
2017-07-25T03:21:07.531Z,4.50
2017-07-25T03:23:46.039Z,4.32
2017-07-25T03:26:12.395Z,5.12
2017-07-25T03:28:38.746Z,4.43
2017-07-25T03:31:05.073Z,4.80
2017-07-25T03:33:31.489Z,5.12
2017-07-25T03:35:57.835Z,4.87
2017-07-25T03:38:24.238Z,5.00
2017-07-25T03:40:50.640Z,4.60
2017-07-25T03:43:17.115Z,4.60
2017-07-25T03:45:43.492Z,4.40
2017-07-25T03:48:09.791Z,4.78
2017-07-25T03:50:36.171Z,5.10
2017-07-25T03:53:02.496Z,5.12
2017-07-25T03:55:28.866Z,5.05
2017-07-25T03:57:55.193Z,4.95
2017-07-25T04:00:21.547Z,4.80
2017-07-25T04:02:47.928Z,4.97
2017-07-25T04:05:14.283Z,5.30
2017-07-25T04:07:40.599Z,5.53
2017-07-25T04:10:06.935Z,5.72
2017-07-25T04:12:33.236Z,5.50
2017-07-25T04:14:59.567Z,5.80
2017-07-25T04:17:25.929Z,6.05
2017-07-25T04:19:52.237Z,5.50
2017-07-25T04:22:18.599Z,6.70
2017-07-25T04:24:44.972Z,6.80
2017-07-25T04:27:12.127Z,6.07
2017-07-25T04:29:38.519Z,6.87
2017-07-25T04:32:04.851Z,6.62
2017-07-25T04:34:31.955Z,5.45
2017-07-25T04:36:58.352Z,7.55
2017-07-25T04:39:24.852Z,6.93
2017-07-25T04:41:51.193Z,6.15
2017-07-25T04:44:17.533Z,6.40
2017-07-25T04:46:43.906Z,7.37
2017-07-25T04:49:10.288Z,5.75
2017-07-25T04:51:36.647Z,6.10
2017-07-25T04:54:03.762Z,5.90
2017-07-25T04:56:30.104Z,6.30
2017-07-25T04:58:56.532Z,6.43
2017-07-25T05:01:22.876Z,5.85
2017-07-25T05:03:49.189Z,5.30
2017-07-25T05:06:15.531Z,5.70
2017-07-25T05:08:42.626Z,4.80
2017-07-25T05:11:08.960Z,5.35
2017-07-25T05:13:35.293Z,5.15
2017-07-25T05:16:01.599Z,5.68
2017-07-25T05:18:39.259Z,4.62
2017-07-25T05:21:05.623Z,5.05
2017-07-25T05:23:31.924Z,5.50
2017-07-25T05:25:58.295Z,5.55
2017-07-25T05:41:13.152Z,3.83
2017-07-25T05:43:39.463Z,3.60
2017-07-25T05:46:06.515Z,3.65
2017-07-25T05:48:32.854Z,3.95
2017-07-25T05:50:59.151Z,3.92
2017-07-25T05:53:25.473Z,3.15
2017-07-25T05:55:51.811Z,4.30
2017-07-25T05:58:18.859Z,3.97
2017-07-25T06:00:45.165Z,3.28
2017-07-25T06:03:11.539Z,3.40
2017-07-25T06:05:37.873Z,3.25
2017-07-25T06:08:04.173Z,3.30
2017-07-25T06:10:30.480Z,3.05
2017-07-25T06:12:56.862Z,2.90
2017-07-25T06:15:23.165Z,3.47
2017-07-25T06:17:49.470Z,3.50
2017-07-25T06:20:15.808Z,3.40
2017-07-25T06:22:42.134Z,3.58
2017-07-25T06:25:08.465Z,3.70
2017-07-25T06:27:34.776Z,3.70
2017-07-25T06:30:01.133Z,3.17
2017-07-25T06:32:27.487Z,3.50
2017-07-25T06:34:53.855Z,2.83
2017-07-25T06:37:20.191Z,3.20
2017-07-25T06:39:46.531Z,3.50
2017-07-25T06:42:12.900Z,4.68
2017-07-25T06:44:39.211Z,3.33
2017-07-25T06:47:05.529Z,4.10
2017-07-25T06:49:31.867Z,3.58
2017-07-25T06:51:58.163Z,3.80
2017-07-25T06:54:24.517Z,3.95
2017-07-25T06:56:50.856Z,3.78
2017-07-25T06:59:17.215Z,2.90
2017-07-25T07:01:43.564Z,4.20
2017-07-25T07:04:10.620Z,4.20
2017-07-25T07:06:36.983Z,5.30
2017-07-25T07:09:03.356Z,4.18
2017-07-25T07:11:29.666Z,4.80
2017-07-25T07:13:56.016Z,4.45
2017-07-25T07:16:22.357Z,5.10
2017-07-25T07:18:49.392Z,4.90
2017-07-25T07:21:16.052Z,4.22
2017-07-25T07:23:43.087Z,4.43
2017-07-25T07:26:09.404Z,4.95
2017-07-25T07:28:35.783Z,4.40
2017-07-25T07:31:02.103Z,4.80
2017-07-25T07:33:28.465Z,4.90
2017-07-25T07:35:54.797Z,4.95
2017-07-25T07:38:21.153Z,5.20
2017-07-25T07:40:48.243Z,4.55
2017-07-25T07:43:14.588Z,4.80
2017-07-25T07:45:40.920Z,4.72
2017-07-25T07:48:07.265Z,4.40
2017-07-25T07:50:33.640Z,4.32
2017-07-25T07:53:00.750Z,4.32
2017-07-25T07:55:27.135Z,4.43
2017-07-25T07:57:53.495Z,4.40
2017-07-25T08:00:19.776Z,4.32
2017-07-25T08:02:46.139Z,4.47
2017-07-25T08:05:12.440Z,4.35
2017-07-25T08:07:38.771Z,4.40
2017-07-25T08:10:05.098Z,4.97
2017-07-25T08:12:32.168Z,4.37
2017-07-25T08:14:58.520Z,4.22
2017-07-25T08:17:24.811Z,4.85
2017-07-25T08:19:51.924Z,4.45
2017-07-25T08:22:18.287Z,4.47
2017-07-25T08:24:44.601Z,4.30
2017-07-25T08:27:10.997Z,5.03
2017-07-25T08:29:37.328Z,5.50
2017-07-25T08:32:03.674Z,5.82
2017-07-25T08:34:30.051Z,5.43
2017-07-25T08:36:57.090Z,6.10
2017-07-25T08:39:24.184Z,5.25
2017-07-25T08:41:50.525Z,5.20
2017-07-25T08:44:16.860Z,5.12
2017-07-25T08:46:43.212Z,5.43
2017-07-25T08:49:09.592Z,6.18
2017-07-25T08:51:35.889Z,5.70
2017-07-25T08:54:03.015Z,5.80
2017-07-25T08:56:29.323Z,5.78
2017-07-25T08:58:55.619Z,4.85
2017-07-25T09:01:22.039Z,5.00
2017-07-25T09:03:48.368Z,4.70
2017-07-25T09:06:15.410Z,5.22
2017-07-25T09:08:41.756Z,4.40
2017-07-25T09:11:08.447Z,3.75
2017-07-25T09:13:34.759Z,3.75
2017-07-25T09:16:01.059Z,4.03
2017-07-25T09:18:27.395Z,3.97
2017-07-25T09:20:53.713Z,3.65
2017-07-25T09:23:27.001Z,3.20
2017-07-25T09:25:54.052Z,3.20
2017-07-25T09:28:21.153Z,3.10
2017-07-25T09:30:47.444Z,3.25
2017-07-25T09:33:13.751Z,3.00
2017-07-25T09:35:40.815Z,4.00
2017-07-25T09:38:07.225Z,3.80
2017-07-25T09:40:33.536Z,2.90
2017-07-25T09:42:59.852Z,2.87
2017-07-25T09:45:26.947Z,2.55
2017-07-25T09:47:53.253Z,2.80
2017-07-25T09:50:19.598Z,2.80
2017-07-25T09:52:46.703Z,2.85
2017-07-25T09:55:12.995Z,2.40
2017-07-25T09:57:39.315Z,2.80
2017-07-25T10:00:06.383Z,1.90
2017-07-25T10:02:32.712Z,2.42
2017-07-25T10:04:59.018Z,2.70
2017-07-25T10:07:26.091Z,2.12
2017-07-25T10:09:52.423Z,2.45
2017-07-25T10:12:18.772Z,2.40
2017-07-25T10:14:45.061Z,2.12
2017-07-25T10:17:11.431Z,2.58
2017-07-25T10:19:37.787Z,2.30
2017-07-25T10:22:04.164Z,2.55
2017-07-25T10:24:30.465Z,2.30
2017-07-25T10:26:57.592Z,2.05
2017-07-25T10:29:23.991Z,2.03
2017-07-25T10:31:50.311Z,2.12
2017-07-25T10:34:16.603Z,2.40
2017-07-25T10:36:42.930Z,2.20
2017-07-25T10:39:09.289Z,3.00
2017-07-25T10:41:35.630Z,3.00
2017-07-25T10:44:02.009Z,2.80
2017-07-25T10:46:28.328Z,3.20
2017-07-25T10:48:54.644Z,2.67
2017-07-25T10:51:21.031Z,2.60
2017-07-25T10:53:47.356Z,2.80
2017-07-25T10:56:14.408Z,3.25
2017-07-25T10:58:41.475Z,3.03
2017-07-25T11:01:07.820Z,3.30
2017-07-25T11:03:34.123Z,3.10
2017-07-25T11:06:01.179Z,2.92
2017-07-25T11:08:27.530Z,3.08
2017-07-25T11:10:53.814Z,3.17
2017-07-25T11:13:20.895Z,3.05
2017-07-25T11:15:47.291Z,2.53
2017-07-25T11:18:13.704Z,2.60
2017-07-25T11:20:40.052Z,2.87
2017-07-25T11:23:06.360Z,2.30
2017-07-25T11:25:32.679Z,2.20
2017-07-25T11:27:59.016Z,2.30
2017-07-25T11:30:25.344Z,2.50
2017-07-25T11:32:51.709Z,2.40
2017-07-25T11:35:18.004Z,2.72
2017-07-25T11:37:44.319Z,2.60
2017-07-25T11:40:10.684Z,2.80
2017-07-25T11:42:36.991Z,2.65
2017-07-25T11:45:03.332Z,2.37
2017-07-25T11:47:29.670Z,3.00
2017-07-25T11:49:56.047Z,2.53
2017-07-25T11:52:22.399Z,2.55
2017-07-25T11:54:48.687Z,3.00
2017-07-25T11:57:15.068Z,2.92
2017-07-25T11:59:41.434Z,2.80
2017-07-25T12:02:07.750Z,2.67
2017-07-25T12:04:34.090Z,2.70
2017-07-25T12:07:00.396Z,2.40
2017-07-25T12:09:26.684Z,2.42
2017-07-25T12:11:53.008Z,2.03
2017-07-25T12:14:20.052Z,1.90
2017-07-25T12:16:47.117Z,2.65
2017-07-25T12:19:13.412Z,2.12
2017-07-25T12:21:43.564Z,2.50
2017-07-25T12:24:09.912Z,2.60
2017-07-25T12:26:36.269Z,3.20
2017-07-25T12:29:02.582Z,2.55
2017-07-25T12:31:28.890Z,2.90
2017-07-25T12:33:55.223Z,3.15
2017-07-25T12:36:21.508Z,2.58
2017-07-25T12:38:47.846Z,2.90
2017-07-25T12:41:14.944Z,2.80
2017-07-25T12:43:41.373Z,3.20
2017-07-25T12:46:07.715Z,2.70
2017-07-25T12:48:34.028Z,3.60
2017-07-25T12:51:00.356Z,2.67
2017-07-25T12:53:26.676Z,2.20
2017-07-25T12:55:53.019Z,2.17
2017-07-25T12:58:19.328Z,1.95
2017-07-25T13:00:57.956Z,2.20
2017-07-25T13:03:27.236Z,2.20
2017-07-25T13:05:53.440Z,2.83
2017-07-25T13:08:19.793Z,2.50
2017-07-25T13:10:46.868Z,2.80
2017-07-25T13:13:13.197Z,2.50
2017-07-25T13:15:39.599Z,2.90
2017-07-25T13:18:06.636Z,2.40
2017-07-25T13:20:33.695Z,2.67
2017-07-25T13:23:00.048Z,2.75
2017-07-25T13:25:26.347Z,2.20
2017-07-25T13:27:52.679Z,2.37
2017-07-25T13:30:19.752Z,2.60
2017-07-25T13:32:46.047Z,2.22
2017-07-25T13:35:12.393Z,2.70
2017-07-25T13:37:39.484Z,2.78
2017-07-25T13:40:05.832Z,1.90
2017-07-25T13:42:32.256Z,1.90
2017-07-25T13:44:58.630Z,2.10
2017-07-25T13:47:25.671Z,2.20
2017-07-25T13:49:51.978Z,2.65
2017-07-25T13:52:18.317Z,1.70
2017-07-25T13:54:44.644Z,1.77
2017-07-25T13:57:10.992Z,1.73
2017-07-25T13:59:37.300Z,2.15
2017-07-25T14:02:03.612Z,1.80
2017-07-25T14:04:29.965Z,1.80
2017-07-25T14:06:56.299Z,2.45
2017-07-25T14:09:22.627Z,1.77
2017-07-25T14:11:49.809Z,1.70
2017-07-25T14:14:16.124Z,1.40
2017-07-25T14:16:43.171Z,1.65
2017-07-25T14:19:10.231Z,1.70
2017-07-25T14:21:36.640Z,2.20
2017-07-25T14:24:02.939Z,1.90
2017-07-25T14:26:29.256Z,1.70
2017-07-25T14:28:55.620Z,1.62
2017-07-25T14:31:21.921Z,1.90
2017-07-25T14:33:48.254Z,1.75
2017-07-25T14:36:14.644Z,2.10
2017-07-25T14:38:41.681Z,1.52
2017-07-25T14:41:08.728Z,1.80
2017-07-25T14:43:35.820Z,2.20
2017-07-25T14:46:02.135Z,2.03
2017-07-25T14:48:28.461Z,2.20
2017-07-25T14:50:54.807Z,1.70
2017-07-25T14:53:21.136Z,1.70
2017-07-25T14:55:47.459Z,1.73
2017-07-25T14:58:13.788Z,1.77
2017-07-25T15:00:40.122Z,1.50
2017-07-25T15:03:06.477Z,1.70
2017-07-25T15:05:32.797Z,1.45
2017-07-25T15:07:59.126Z,1.20
2017-07-25T15:10:25.443Z,1.10
2017-07-25T15:12:51.773Z,1.30
2017-07-25T15:15:18.072Z,1.55
2017-07-25T15:17:45.155Z,1.42
2017-07-25T15:20:11.456Z,1.35
2017-07-25T15:22:37.770Z,1.48
2017-07-25T15:25:04.108Z,1.30
2017-07-25T15:27:30.445Z,1.45
2017-07-25T15:29:57.529Z,1.42
2017-07-25T15:32:23.852Z,1.50
2017-07-25T15:34:50.195Z,1.83
2017-07-25T15:37:16.547Z,1.45
2017-07-25T15:39:42.887Z,1.67
2017-07-25T15:42:09.215Z,1.70
2017-07-25T15:44:35.549Z,1.60
2017-07-25T15:47:01.952Z,1.73
2017-07-25T15:49:28.320Z,2.00
2017-07-25T15:51:54.620Z,1.70
2017-07-25T15:54:20.950Z,1.90
2017-07-25T15:56:47.255Z,1.85
2017-07-25T15:59:13.587Z,2.25
2017-07-25T16:01:39.908Z,2.00
2017-07-25T16:04:06.293Z,2.33
2017-07-25T16:06:32.595Z,2.00
2017-07-25T16:08:58.923Z,2.15
2017-07-25T16:11:25.276Z,2.50
2017-07-25T16:13:51.602Z,2.28
2017-07-25T16:16:18.923Z,2.90
2017-07-25T16:18:45.236Z,2.90
2017-07-25T16:21:11.568Z,2.70
2017-07-25T16:23:37.914Z,2.42
2017-07-25T16:26:04.205Z,3.10
2017-07-25T16:28:31.250Z,2.53
2017-07-25T16:30:57.585Z,2.60
2017-07-25T16:33:23.896Z,2.50
2017-07-25T16:35:50.204Z,3.15
2017-07-25T16:38:16.532Z,2.85
2017-07-25T16:40:42.875Z,2.90
2017-07-25T16:43:09.216Z,2.50
2017-07-25T16:45:35.536Z,2.58
2017-07-25T16:48:01.838Z,3.30
2017-07-25T16:50:28.196Z,2.85
2017-07-25T16:52:54.484Z,2.25
2017-07-25T16:55:20.864Z,2.60
2017-07-25T16:57:47.284Z,2.80
2017-07-25T17:00:13.718Z,2.33
2017-07-25T17:02:40.080Z,2.53
2017-07-25T17:05:06.424Z,2.87
2017-07-25T17:07:33.520Z,2.42
2017-07-25T17:09:59.841Z,2.67
2017-07-25T17:12:26.160Z,2.58
2017-07-25T17:14:52.503Z,2.30
2017-07-25T17:17:18.815Z,2.37
2017-07-25T17:19:45.143Z,2.35
2017-07-25T17:22:11.495Z,2.25
2017-07-25T17:24:37.828Z,2.40
2017-07-25T17:27:04.140Z,2.30
2017-07-25T17:29:30.483Z,2.20
2017-07-25T17:31:56.809Z,2.40
2017-07-25T17:34:23.147Z,2.22
2017-07-25T17:36:49.484Z,1.87
2017-07-25T17:39:15.812Z,2.53
2017-07-25T17:41:42.182Z,2.10
2017-07-25T17:44:08.496Z,2.30
2017-07-25T17:46:34.824Z,2.50
2017-07-25T17:49:01.160Z,2.55
2017-07-25T17:51:27.472Z,3.05
2017-07-25T17:53:53.779Z,2.60
2017-07-25T17:56:20.127Z,3.20
2017-07-25T17:58:46.485Z,4.40
2017-07-25T18:01:12.812Z,4.45
2017-07-25T18:03:39.181Z,4.00
2017-07-25T18:06:05.501Z,3.78
2017-07-25T18:08:31.817Z,3.70
2017-07-25T18:10:58.216Z,3.35
2017-07-25T18:13:24.602Z,3.00
2017-07-25T18:15:50.959Z,2.17
2017-07-25T18:18:18.157Z,2.22
2017-07-25T18:20:45.215Z,2.00
2017-07-25T18:23:11.618Z,1.87
2017-07-25T18:25:38.033Z,2.25
2017-07-25T18:28:04.409Z,2.25
2017-07-25T18:30:31.480Z,3.45
2017-07-25T18:32:57.781Z,3.40
2017-07-25T18:35:24.201Z,3.05
2017-07-25T18:37:51.328Z,3.10
2017-07-25T18:40:17.661Z,3.03
2017-07-25T18:42:43.992Z,3.67
2017-07-25T18:45:10.364Z,2.90
2017-07-25T18:47:37.464Z,2.85
2017-07-25T18:50:03.838Z,3.08
2017-07-25T18:52:30.907Z,3.22
2017-07-25T18:54:57.243Z,3.00
2017-07-25T18:57:23.647Z,3.00
2017-07-25T18:59:50.117Z,3.40
2017-07-25T19:02:16.671Z,3.00
2017-07-25T19:04:43.027Z,3.30
2017-07-25T19:07:09.412Z,3.95
2017-07-25T19:09:35.732Z,3.50
2017-07-25T19:12:02.106Z,3.75
2017-07-25T19:14:28.599Z,3.40
2017-07-25T19:16:54.977Z,3.60
2017-07-25T19:19:21.323Z,3.42
2017-07-25T19:21:47.906Z,4.00
2017-07-25T19:27:08.981Z,3.70
2017-07-25T19:29:35.560Z,4.03
2017-07-25T19:32:02.191Z,3.60
2017-07-25T19:34:28.862Z,3.30
2017-07-25T19:36:55.494Z,3.80
2017-07-25T19:39:22.681Z,4.15
2017-07-25T19:41:49.253Z,3.80
2017-07-25T19:44:15.912Z,3.85
2017-07-25T19:46:42.271Z,3.80
2017-07-25T19:49:08.851Z,3.67
2017-07-25T19:51:35.490Z,4.62
2017-07-25T19:54:01.857Z,4.03
2017-07-25T19:56:28.233Z,4.22
2017-07-25T19:58:54.589Z,3.22
2017-07-25T20:01:20.952Z,3.80
2017-07-25T20:03:47.352Z,3.97
2017-07-25T20:06:13.736Z,3.67
2017-07-25T20:08:40.902Z,3.58
2017-07-25T20:11:07.310Z,3.65
2017-07-25T20:13:33.696Z,3.70
2017-07-25T20:16:00.088Z,3.75
2017-07-25T20:18:26.445Z,3.12
2017-07-25T20:20:52.812Z,3.33
2017-07-25T20:23:19.207Z,3.92
2017-07-25T20:25:45.551Z,3.35
2017-07-25T20:28:12.000Z,2.80
2017-07-25T20:30:38.359Z,3.30
2017-07-25T20:33:04.815Z,3.60
2017-07-25T20:35:31.976Z,3.30
2017-07-25T20:37:58.353Z,3.40
2017-07-25T20:40:24.663Z,3.55
2017-07-25T20:42:50.973Z,2.70
2017-07-25T20:45:18.072Z,3.10
2017-07-25T20:47:44.403Z,3.40
2017-07-25T20:50:10.753Z,3.40
2017-07-25T20:52:37.089Z,3.60
2017-07-25T20:55:03.419Z,3.70
2017-07-25T20:57:29.841Z,3.75
2017-07-25T20:59:56.164Z,3.62
2017-07-25T21:02:22.506Z,3.37
2017-07-25T21:04:48.852Z,4.43
2017-07-25T21:07:15.235Z,3.80
2017-07-25T21:09:41.576Z,3.40
2017-07-25T21:12:07.952Z,4.15
2017-07-25T21:14:34.352Z,3.35
2017-07-25T21:17:00.678Z,4.30
2017-07-25T21:19:26.991Z,3.95
2017-07-25T21:21:53.374Z,3.90
2017-07-25T21:24:20.516Z,3.58
2017-07-25T21:26:47.609Z,3.70
2017-07-25T21:29:13.960Z,3.70
2017-07-25T21:31:40.324Z,3.47
2017-07-25T21:34:06.671Z,4.20
2017-07-25T21:36:33.751Z,3.28
2017-07-25T21:39:00.112Z,3.85
2017-07-25T21:41:26.448Z,4.10
2017-07-25T21:43:52.772Z,3.47
2017-07-25T21:46:19.120Z,3.70
2017-07-25T21:48:45.468Z,3.15
2017-07-25T21:51:12.533Z,3.42
2017-07-25T21:53:38.865Z,3.70
2017-07-25T21:56:05.191Z,3.17
2017-07-25T21:58:31.591Z,3.35
2017-07-25T22:00:58.720Z,3.00
2017-07-25T22:03:38.261Z,4.00
2017-07-25T22:06:04.570Z,3.40
2017-07-25T22:08:30.921Z,3.80
2017-07-25T22:10:57.176Z,3.20
2017-07-25T22:13:23.440Z,3.60
2017-07-25T22:15:49.655Z,4.05
2017-07-25T22:18:15.895Z,3.30
2017-07-25T22:20:42.166Z,3.20
2017-07-25T22:23:08.411Z,2.87
2017-07-25T22:25:34.640Z,3.65
2017-07-25T22:28:00.877Z,3.05
2017-07-25T22:30:27.316Z,2.78
2017-07-25T22:32:53.543Z,3.08
2017-07-25T22:35:20.513Z,2.83
2017-07-25T22:37:46.744Z,3.20
2017-07-25T22:40:13.016Z,2.70
2017-07-25T22:42:39.248Z,2.70
2017-07-25T22:45:05.470Z,2.95
2017-07-25T22:47:31.728Z,3.30
2017-07-25T22:49:57.932Z,3.30
2017-07-25T22:52:24.148Z,2.80
2017-07-25T22:54:50.416Z,3.30
2017-07-25T22:57:16.710Z,2.90
2017-07-25T22:59:42.940Z,2.55
2017-07-25T23:02:09.167Z,2.70
2017-07-25T23:04:35.424Z,2.60
2017-07-25T23:07:02.391Z,2.35
2017-07-25T23:09:28.624Z,2.80
2017-07-25T23:11:54.890Z,2.80
2017-07-25T23:14:21.148Z,2.50
2017-07-25T23:16:48.132Z,2.60
2017-07-25T23:19:14.368Z,2.10
2017-07-25T23:21:40.636Z,2.25
2017-07-25T23:24:06.892Z,2.70
2017-07-25T23:26:33.138Z,2.53
2017-07-25T23:28:59.392Z,2.80
2017-07-25T23:31:25.612Z,3.17
2017-07-25T23:33:51.853Z,2.65
2017-07-25T23:36:18.270Z,2.75
2017-07-25T23:38:44.503Z,2.70
2017-07-25T23:41:10.734Z,2.50
2017-07-25T23:43:36.966Z,3.00
2017-07-25T23:46:03.190Z,2.97
2017-07-25T23:48:29.391Z,3.20
2017-07-25T23:50:55.652Z,3.00
2017-07-25T23:53:21.876Z,2.60
2017-07-25T23:55:48.091Z,2.50
2017-07-25T23:58:14.405Z,3.20
